Time;durP1;ratioP1;P1;durP2;ratioP2;P2;SDS_P1;SDS_P2;PMS_P1;PMS_P2;Temp;Humidity;BMP_temperature;BMP_pressure;BME280_temperature;BME280_humidity;BME280_pressure;Samples;Min_cycle;Max_cycle;Signal;HPM_P1;HPM_P2
2022/05/31 00:00:47;;;;;;;3.30;3.00;;;9.10;99.90;8.40;100038;;;;592802;241;24085;-79
2022/05/31 00:03:15;;;;;;;2.80;2.60;;;9.10;99.90;8.30;100042;;;;593805;241;24151;-80
2022/05/31 00:05:44;;;;;;;3.20;2.90;;;9.00;99.90;8.20;100035;;;;593289;241;24132;-84
2022/05/31 00:08:10;;;;;;;6.37;3.20;;;9.00;99.90;8.20;100045;;;;593349;241;24159;-81
2022/05/31 00:10:38;;;;;;;4.77;3.37;;;9.00;99.90;8.20;100047;;;;593384;241;24082;-83
2022/05/31 00:13:09;;;;;;;4.57;3.30;;;8.90;99.90;8.20;100038;;;;593398;241;24095;-84
2022/05/31 00:15:34;;;;;;;6.67;3.33;;;8.90;99.90;8.10;100034;;;;592645;241;24091;-83
2022/05/31 00:18:02;;;;;;;3.93;3.33;;;8.80;99.90;8.00;100036;;;;594982;240;24182;-82
2022/05/31 00:20:34;;;;;;;3.70;3.40;;;8.70;99.90;7.80;100030;;;;586108;241;24074;-83
2022/05/31 00:22:58;;;;;;;3.33;3.07;;;8.70;99.90;7.80;100037;;;;593218;241;24119;-84
2022/05/31 00:25:26;;;;;;;3.63;3.00;;;8.60;99.90;7.70;100032;;;;591252;241;24128;-83
2022/05/31 00:27:54;;;;;;;3.37;3.07;;;8.50;99.90;7.60;100038;;;;594377;241;24059;-79
2022/05/31 00:30:22;;;;;;;3.50;3.10;;;8.40;99.90;7.50;100038;;;;594230;241;24106;-78
2022/05/31 00:32:49;;;;;;;6.10;5.20;;;8.30;99.90;7.40;100040;;;;593830;241;24072;-82
2022/05/31 00:35:23;;;;;;;5.27;4.13;;;8.20;99.90;7.30;100043;;;;592836;241;24092;-83
2022/05/31 00:37:54;;;;;;;3.70;3.40;;;8.10;99.90;7.30;100048;;;;592873;241;24059;-85
2022/05/31 00:40:19;;;;;;;3.70;3.13;;;8.00;99.90;7.20;100050;;;;586770;241;24149;-80
2022/05/31 00:43:05;;;;;;;4.00;3.63;;;8.00;99.90;7.10;100046;;;;593358;241;24067;-83
2022/05/31 00:45:50;;;;;;;7.30;4.00;;;7.90;99.90;7.10;100045;;;;584716;241;24102;-81
2022/05/31 00:48:23;;;;;;;3.47;3.03;;;7.90;99.90;7.00;100045;;;;586610;241;24069;-82
2022/05/31 00:50:51;;;;;;;4.43;3.77;;;7.80;99.90;7.00;100048;;;;580600;241;24057;-83
2022/05/31 00:53:19;;;;;;;3.87;3.57;;;7.80;99.90;6.90;100057;;;;584663;241;24146;-83
2022/05/31 00:55:52;;;;;;;5.07;3.57;;;7.70;99.90;6.90;100058;;;;593055;240;24143;-81
2022/05/31 00:58:24;;;;;;;4.00;3.70;;;7.70;99.90;6.90;100061;;;;593251;241;24096;-83
2022/05/31 01:00:55;;;;;;;5.43;3.57;;;7.70;99.90;6.80;100054;;;;589941;241;24083;-83
2022/05/31 01:03:19;;;;;;;9.23;3.87;;;7.60;99.90;6.80;100059;;;;592703;239;24106;-83
2022/05/31 01:05:47;;;;;;;4.43;4.03;;;7.60;99.90;6.70;100054;;;;593166;241;24131;-79
2022/05/31 01:08:18;;;;;;;5.27;3.40;;;7.50;99.90;6.70;100062;;;;593856;241;24048;-79
2022/05/31 01:10:43;;;;;;;4.00;3.60;;;7.50;99.90;6.60;100063;;;;593508;241;24064;-82
2022/05/31 01:13:14;;;;;;;4.40;4.00;;;7.40;99.90;6.60;100067;;;;593681;237;24085;-83
2022/05/31 01:15:39;;;;;;;4.23;3.83;;;7.40;99.90;6.60;100073;;;;582047;241;24098;-81
2022/05/31 01:18:07;;;;;;;4.90;3.73;;;7.30;99.90;6.50;100062;;;;584563;241;24077;-84
2022/05/31 01:20:35;;;;;;;3.77;3.43;;;7.30;99.90;6.50;100060;;;;593556;241;24061;-83
2022/05/31 01:23:08;;;;;;;5.20;3.67;;;7.30;99.90;6.40;100063;;;;593769;241;24084;-82
2022/05/31 01:26:07;;;;;;;3.80;3.50;;;7.20;99.90;6.40;100070;;;;592413;241;24093;-83
2022/05/31 01:29:04;;;;;;;6.03;4.27;;;7.20;99.90;6.40;100073;;;;582713;240;24103;-83
2022/05/31 01:31:43;;;;;;;6.90;5.43;;;7.20;99.90;6.40;100069;;;;585408;241;24070;-81
2022/05/31 01:34:20;;;;;;;6.50;5.90;;;7.20;99.90;6.40;100078;;;;585293;241;24073;-82
2022/05/31 01:36:51;;;;;;;5.40;4.83;;;7.20;99.90;6.40;100085;;;;585369;241;24115;-80
2022/05/31 01:39:25;;;;;;;5.67;4.10;;;7.20;99.90;6.40;100074;;;;593935;241;24080;-81
2022/05/31 01:41:58;;;;;;;4.17;3.40;;;7.20;99.90;6.50;100084;;;;593020;241;24048;-80
2022/05/31 01:44:26;;;;;;;4.97;3.80;;;7.20;99.90;6.50;100090;;;;584810;241;25092;-79
2022/05/31 01:46:54;;;;;;;6.73;4.07;;;7.30;99.90;6.60;100085;;;;593367;241;24092;-77
2022/05/31 01:49:22;;;;;;;5.23;4.27;;;7.30;99.90;6.60;100081;;;;593638;241;24067;-83
2022/05/31 01:51:50;;;;;;;4.77;4.23;;;7.40;99.90;6.70;100087;;;;593574;241;24069;-79
2022/05/31 01:54:21;;;;;;;4.37;3.97;;;7.40;99.90;6.60;100088;;;;587281;241;24097;-79
2022/05/31 01:56:46;;;;;;;4.60;4.10;;;7.40;99.90;6.60;100087;;;;582387;241;25214;-79
2022/05/31 01:59:17;;;;;;;4.20;3.80;;;7.40;99.90;6.50;100086;;;;593157;241;24160;-83
2022/05/31 02:01:44;;;;;;;6.10;4.97;;;7.30;99.90;6.40;100088;;;;583914;241;24105;-80
2022/05/31 02:04:10;;;;;;;5.77;4.27;;;7.20;99.90;6.40;100088;;;;592994;241;24077;-79
2022/05/31 02:06:38;;;;;;;3.93;3.53;;;7.20;99.90;6.30;100088;;;;584455;241;24082;-79
2022/05/31 02:09:06;;;;;;;6.20;3.33;;;7.10;99.90;6.30;100096;;;;593284;241;24064;-78
2022/05/31 02:11:36;;;;;;;4.30;3.50;;;7.10;99.90;6.30;100098;;;;593717;238;27296;-82
2022/05/31 02:14:04;;;;;;;3.43;3.13;;;7.10;99.90;6.30;100097;;;;592820;238;24077;-79
2022/05/31 02:16:33;;;;;;;6.07;3.60;;;7.10;99.90;6.30;100098;;;;581287;241;24099;-78
2022/05/31 02:19:18;;;;;;;4.57;4.17;;;7.10;99.90;6.30;100103;;;;592611;238;24105;-79
2022/05/31 02:21:43;;;;;;;4.13;3.70;;;7.10;99.90;6.30;100104;;;;593130;241;24147;-80
2022/05/31 02:24:11;;;;;;;4.37;3.43;;;7.00;99.90;6.30;100102;;;;593278;241;24126;-78
2022/05/31 02:26:43;;;;;;;3.80;3.50;;;7.00;99.90;6.30;100096;;;;584002;241;24083;-80
2022/05/31 02:29:11;;;;;;;5.63;3.63;;;7.10;99.90;6.40;100102;;;;592309;241;24084;-79
2022/05/31 02:31:35;;;;;;;5.97;3.60;;;7.10;99.90;6.40;100102;;;;583883;241;24055;-79
2022/05/31 02:34:03;;;;;;;4.23;3.90;;;7.20;99.90;6.40;100104;;;;593020;241;24083;-78
2022/05/31 02:36:34;;;;;;;3.93;3.60;;;7.20;99.90;6.50;100100;;;;586619;241;24037;-79
2022/05/31 02:39:02;;;;;;;4.57;3.50;;;7.20;99.90;6.50;100107;;;;583777;241;24064;-80
2022/05/31 02:41:29;;;;;;;3.43;3.13;;;7.30;99.90;6.60;100104;;;;594003;240;24174;-80
2022/05/31 02:43:55;;;;;;;4.97;3.37;;;7.40;99.90;6.70;100107;;;;585074;241;24064;-79
2022/05/31 02:46:22;;;;;;;4.93;3.73;;;7.50;99.90;6.80;100104;;;;594018;241;25151;-79
2022/05/31 02:48:54;;;;;;;5.27;3.63;;;7.70;99.90;7.00;100111;;;;593574;241;24194;-79
2022/05/31 02:51:19;;;;;;;3.83;3.50;;;7.70;99.90;7.10;100110;;;;587008;241;24143;-80
2022/05/31 02:53:47;;;;;;;4.53;3.27;;;7.80;99.90;7.20;100112;;;;594024;241;24072;-79
2022/05/31 02:56:15;;;;;;;4.30;3.90;;;7.90;99.90;7.30;100113;;;;593944;241;24052;-79
2022/05/31 02:58:44;;;;;;;8.53;3.37;;;8.00;99.90;7.40;100108;;;;594091;241;24060;-79
2022/05/31 03:01:31;;;;;;;3.70;3.30;;;8.20;99.90;7.50;100109;;;;594032;241;24083;-81
2022/05/31 03:03:59;;;;;;;4.13;3.47;;;8.20;99.90;7.60;100107;;;;585125;241;24116;-79
2022/05/31 03:06:27;;;;;;;4.13;3.50;;;8.30;99.90;7.60;100121;;;;593814;241;24044;-78
2022/05/31 03:08:55;;;;;;;5.07;4.07;;;8.30;99.90;7.60;100112;;;;593311;241;24049;-79
2022/05/31 03:11:23;;;;;;;4.13;3.70;;;8.40;99.90;7.60;100116;;;;593884;241;24055;-79
2022/05/31 03:13:51;;;;;;;3.30;3.00;;;8.40;99.90;7.70;100119;;;;593284;241;24166;-79
2022/05/31 03:16:19;;;;;;;3.63;3.33;;;8.40;99.90;7.70;100121;;;;593147;241;24110;-80
2022/05/31 03:18:47;;;;;;;4.20;3.80;;;8.50;99.90;7.80;100123;;;;584076;241;24054;-79
2022/05/31 03:21:15;;;;;;;3.60;3.27;;;8.50;99.90;8.20;100121;;;;592734;241;24053;-80
2022/05/31 03:23:49;;;;;;;4.50;3.40;;;8.80;99.90;8.70;100121;;;;592727;238;24103;-80
2022/05/31 03:26:20;;;;;;;5.67;4.00;;;9.30;99.90;9.10;100119;;;;592871;241;24085;-81
2022/05/31 03:28:45;;;;;;;5.23;4.17;;;9.70;99.90;10.00;100128;;;;584151;241;24131;-80
2022/05/31 03:31:12;;;;;;;3.70;3.40;;;10.50;99.90;10.80;100123;;;;593695;241;24124;-80
2022/05/31 03:33:40;;;;;;;3.80;3.50;;;11.40;99.90;11.60;100134;;;;593492;238;24140;-83
2022/05/31 03:36:08;;;;;;;3.83;3.50;;;12.20;99.90;12.30;100135;;;;593762;241;24119;-82
2022/05/31 03:38:36;;;;;;;3.03;2.83;;;13.00;99.90;13.00;100141;;;;594181;241;24098;-80
2022/05/31 03:41:04;;;;;;;2.47;2.30;;;13.70;99.90;13.60;100138;;;;594412;241;24167;-80
2022/05/31 03:43:32;;;;;;;2.50;2.30;;;14.40;99.90;13.70;100137;;;;594291;241;24059;-79
2022/05/31 03:46:00;;;;;;;2.33;2.23;;;14.60;99.90;13.70;100140;;;;591172;241;24076;-80
2022/05/31 03:48:32;;;;;;;1.90;1.83;;;14.70;99.90;13.50;100136;;;;593838;241;24096;-79
2022/05/31 03:51:02;;;;;;;2.40;2.30;;;14.20;99.90;13.10;100138;;;;583404;241;25108;-79
2022/05/31 03:53:30;;;;;;;4.00;2.27;;;14.20;99.90;13.00;100134;;;;594048;240;24101;-79
2022/05/31 03:55:58;;;;;;;2.13;1.93;;;13.90;99.90;13.50;100140;;;;591122;241;24102;-80
2022/05/31 03:58:27;;;;;;;2.63;2.47;;;14.20;99.90;14.30;100144;;;;593496;241;24080;-79
2022/05/31 04:00:55;;;;;;;5.40;2.30;;;14.90;99.90;15.20;100140;;;;584808;241;24053;-81
2022/05/31 04:03:23;;;;;;;2.83;2.20;;;15.80;99.90;16.40;100143;;;;593609;241;24049;-79
2022/05/31 04:05:51;;;;;;;2.60;1.90;;;16.90;99.90;17.20;100157;;;;593588;241;24116;-81
2022/05/31 04:08:19;;;;;;;2.20;2.00;;;17.80;99.90;18.40;100150;;;;584603;241;24053;-80
2022/05/31 04:10:49;;;;;;;1.67;1.67;;;18.90;99.90;19.20;100155;;;;592810;241;24044;-79
2022/05/31 04:13:15;;;;;;;1.90;1.80;;;20.70;99.90;19.90;100153;;;;592892;238;24064;-80
2022/05/31 04:15:44;;;;;;;2.00;1.90;;;21.50;99.90;20.60;100159;;;;590415;241;24053;-80
2022/05/31 04:18:15;;;;;;;1.90;1.80;;;21.40;99.90;20.90;100160;;;;594449;237;24183;-79
2022/05/31 04:20:43;;;;;;;2.40;1.80;;;21.90;99.00;21.30;100166;;;;592718;241;24165;-79
2022/05/31 04:26:05;;;;;;;2.43;2.23;;;23.00;93.80;22.80;100169;;;;592994;241;24044;-79
2022/05/31 04:28:33;;;;;;;2.20;2.10;;;23.80;91.60;23.50;100167;;;;584377;241;24061;-81
2022/05/31 04:31:01;;;;;;;2.00;1.90;;;24.60;89.20;24.20;100170;;;;593240;241;24167;-78
2022/05/31 04:33:29;;;;;;;2.23;2.00;;;25.30;81.50;24.70;100180;;;;593466;241;23074;-85
2022/05/31 04:36:06;;;;;;;1.77;1.77;;;25.80;75.90;25.40;100182;;;;584616;241;23087;-82
2022/05/31 04:38:31;;;;;;;2.13;2.03;;;26.40;71.60;25.50;100187;;;;592579;238;24094;-81
2022/05/31 04:40:59;;;;;;;3.67;2.40;;;26.80;68.40;25.80;100187;;;;584414;241;23086;-85
2022/05/31 04:43:27;;;;;;;1.97;1.87;;;27.50;65.20;26.20;100200;;;;594681;241;23091;-84
2022/05/31 04:45:55;;;;;;;2.07;1.97;;;27.40;65.00;26.70;100197;;;;593765;241;23118;-84
2022/05/31 04:48:23;;;;;;;2.43;2.30;;;28.00;62.50;26.70;100201;;;;593854;241;24153;-84
2022/05/31 04:50:52;;;;;;;3.20;2.03;;;28.10;61.10;25.50;100198;;;;593427;241;23115;-80
2022/05/31 04:53:19;;;;;;;2.30;2.10;;;27.10;61.40;24.70;100195;;;;593552;241;24072;-81
2022/05/31 04:55:47;;;;;;;2.00;1.90;;;26.30;62.40;24.90;100206;;;;593223;241;23129;-80
2022/05/31 04:58:15;;;;;;;2.60;2.40;;;26.10;62.80;25.20;100201;;;;593292;241;23154;-84
2022/05/31 05:00:43;;;;;;;3.63;2.27;;;26.30;63.20;26.10;100206;;;;584226;241;24128;-84
2022/05/31 05:03:11;;;;;;;2.57;2.40;;;27.80;60.70;26.90;100204;;;;593771;237;23078;-85
2022/05/31 05:05:39;;;;;;;2.20;2.10;;;27.80;60.70;27.50;100205;;;;595018;240;23083;-86
2022/05/31 05:08:07;;;;;;;3.40;2.30;;;28.50;59.40;27.60;100202;;;;594518;241;23106;-86
2022/05/31 05:10:35;;;;;;;2.50;2.40;;;28.70;57.90;27.50;100200;;;;593510;241;24146;-86
2022/05/31 05:13:03;;;;;;;2.30;2.20;;;28.60;57.40;28.20;100208;;;;593719;241;23106;-87
2022/05/31 05:15:31;;;;;;;2.60;2.30;;;29.30;57.00;28.90;100208;;;;584869;241;23069;-87
2022/05/31 05:17:59;;;;;;;2.08;2.00;;;29.90;55.40;29.30;100203;;;;593805;241;23122;-83
2022/05/31 05:20:27;;;;;;;2.35;2.15;;;30.30;54.80;29.50;100206;;;;593953;241;23148;-84
2022/05/31 05:22:55;;;;;;;2.70;2.50;;;30.70;53.10;29.40;100213;;;;593516;241;23066;-82
2022/05/31 05:25:26;;;;;;;2.93;2.50;;;30.50;52.90;29.70;100208;;;;593314;241;24128;-82
2022/05/31 05:27:50;;;;;;;2.85;2.65;;;30.70;52.90;30.70;100210;;;;584123;241;23080;-80
2022/05/31 05:33:05;;;;;;;3.37;3.17;;;32.90;48.80;32.00;100199;;;;592860;241;23117;-81
2022/05/31 05:35:33;;;;;;;3.42;2.50;;;32.80;48.70;32.30;100207;;;;592956;241;23055;-82
2022/05/31 05:38:01;;;;;;;2.53;2.42;;;33.40;48.80;33.20;100216;;;;593009;241;23119;-80
2022/05/31 05:40:29;;;;;;;2.50;2.28;;;34.20;48.20;34.20;100215;;;;593500;241;23123;-81
2022/05/31 05:42:57;;;;;;;2.50;2.40;;;35.00;46.10;34.50;100211;;;;593602;241;24101;-79
2022/05/31 05:45:25;;;;;;;2.53;2.42;;;35.50;45.20;35.10;100212;;;;584406;241;23059;-79
2022/05/31 05:47:52;;;;;;;2.45;2.35;;;36.00;44.20;35.50;100217;;;;593511;241;23118;-81
2022/05/31 05:50:20;;;;;;;2.35;2.15;;;36.40;44.00;35.90;100224;;;;593317;241;24179;-80
2022/05/31 05:52:51;;;;;;;2.08;1.98;;;36.90;42.90;36.70;100228;;;;593117;241;23059;-81
2022/05/31 05:55:19;;;;;;;2.33;2.22;;;37.50;42.50;37.20;100227;;;;592709;241;23099;-79
2022/05/31 05:57:47;;;;;;;2.95;2.80;;;38.00;42.40;37.90;100232;;;;593068;241;23066;-81
2022/05/31 06:00:19;;;;;;;3.70;3.40;;;38.60;41.60;38.30;100233;;;;592912;241;23105;-81
2022/05/31 06:02:43;;;;;;;3.22;2.95;;;39.10;41.10;38.70;100240;;;;592437;241;23124;-80
2022/05/31 06:05:22;;;;;;;3.15;2.50;;;39.40;39.80;38.70;100242;;;;592417;238;23091;-80
2022/05/31 06:07:50;;;;;;;2.58;2.37;;;39.50;39.50;39.10;100238;;;;583566;241;23090;-81
2022/05/31 06:10:18;;;;;;;2.60;2.40;;;39.70;39.00;39.30;100240;;;;592183;241;23103;-81
2022/05/31 06:12:52;;;;;;;2.40;2.30;;;40.00;38.30;39.00;100235;;;;592043;241;23071;-80
2022/05/31 06:15:23;;;;;;;2.70;2.30;;;40.00;38.40;39.20;100240;;;;593125;237;24088;-80
2022/05/31 06:17:52;;;;;;;2.20;2.05;;;40.00;38.40;39.50;100243;;;;593728;241;23075;-81
2022/05/31 06:20:19;;;;;;;2.30;2.20;;;40.20;38.50;39.60;100244;;;;593429;241;23058;-82
2022/05/31 06:22:48;;;;;;;2.40;2.30;;;40.60;37.20;39.90;100249;;;;593570;241;23073;-81
2022/05/31 06:25:17;;;;;;;2.08;1.98;;;40.90;37.40;40.10;100246;;;;593645;241;23071;-80
2022/05/31 06:27:45;;;;;;;2.58;2.17;;;40.80;37.40;40.60;100252;;;;593047;241;23111;-83
2022/05/31 06:30:12;;;;;;;2.80;2.40;;;41.20;36.80;40.70;100251;;;;579412;241;35034;-82
2022/05/31 06:32:42;;;;;;;2.87;2.00;;;41.50;36.70;40.80;100257;;;;593559;241;23106;-83
2022/05/31 06:35:09;;;;;;;2.20;2.10;;;41.50;36.10;41.00;100261;;;;578031;247;23078;-85
2022/05/31 06:37:37;;;;;;;1.98;1.87;;;41.80;36.30;41.40;100263;;;;584461;241;23056;-83
2022/05/31 06:40:05;;;;;;;2.42;2.22;;;42.10;36.80;41.70;100263;;;;584761;241;25164;-83
2022/05/31 06:42:33;;;;;;;2.20;2.10;;;42.20;36.70;42.10;100265;;;;585205;241;23055;-81
2022/05/31 06:45:01;;;;;;;6.05;2.58;;;42.60;36.00;40.80;100265;;;;594136;241;23058;-81
2022/05/31 06:47:29;;;;;;;2.60;2.10;;;41.90;36.20;40.10;100274;;;;594029;241;23068;-80
2022/05/31 06:49:57;;;;;;;3.50;2.33;;;41.10;36.60;39.90;100276;;;;593630;241;23081;-80
2022/05/31 06:57:57;;;;;;;2.05;1.95;;;41.70;35.90;41.90;100281;;;;593208;241;23052;-83
2022/05/31 07:00:25;;;;;;;2.00;1.92;;;42.30;35.50;42.60;100288;;;;593621;241;23094;-81
2022/05/31 07:02:59;;;;;;;2.00;1.90;;;42.80;35.10;43.00;100290;;;;591059;241;23146;-82
2022/05/31 07:05:21;;;;;;;1.98;1.87;;;43.40;34.30;42.70;100298;;;;583302;241;23089;-81
2022/05/31 07:07:49;;;;;;;1.80;1.80;;;43.40;34.40;42.90;100297;;;;593318;241;23086;-82
2022/05/31 07:10:18;;;;;;;2.00;1.90;;;43.40;34.60;42.80;100297;;;;592651;238;23073;-80
2022/05/31 07:12:49;;;;;;;2.10;1.65;;;43.40;34.60;42.30;100303;;;;592681;241;23063;-80
2022/05/31 07:15:14;;;;;;;3.70;2.58;;;43.00;34.40;41.20;100307;;;;583658;241;23068;-80
2022/05/31 07:17:46;;;;;;;2.40;2.30;;;42.20;34.50;38.60;100305;;;;592289;241;23081;-81
2022/05/31 07:20:10;;;;;;;2.20;2.10;;;40.40;35.30;38.30;100306;;;;583580;241;23061;-79
2022/05/31 07:22:38;;;;;;;2.10;2.00;;;39.30;36.90;39.40;100301;;;;583968;241;23095;-79
2022/05/31 07:25:10;;;;;;;4.15;2.37;;;39.60;37.30;40.80;100307;;;;584147;241;23097;-81
2022/05/31 07:27:36;;;;;;;2.10;2.00;;;40.70;36.40;41.60;100298;;;;580921;245;23084;-84
2022/05/31 07:30:01;;;;;;;2.28;2.08;;;41.50;35.40;42.20;100301;;;;577910;244;23136;-82
2022/05/31 07:32:29;;;;;;;2.53;2.33;;;42.30;34.90;42.80;100306;;;;584991;244;23062;-83
2022/05/31 07:34:57;;;;;;;1.98;1.87;;;42.90;34.40;43.10;100305;;;;593773;240;23058;-83
2022/05/31 07:37:25;;;;;;;1.90;1.80;;;43.20;33.70;43.50;100304;;;;593723;241;23099;-80
2022/05/31 07:39:53;;;;;;;1.90;1.80;;;43.70;34.30;43.70;100307;;;;584624;241;24102;-79
2022/05/31 07:42:21;;;;;;;2.00;1.90;;;44.10;33.20;44.00;100310;;;;593358;241;23099;-80
2022/05/31 07:44:49;;;;;;;2.08;1.90;;;44.40;32.90;42.70;100317;;;;593622;236;23068;-80
2022/05/31 07:47:17;;;;;;;1.60;1.50;;;44.00;32.20;39.80;100322;;;;592710;238;23099;-80
2022/05/31 07:49:45;;;;;;;1.50;1.40;;;41.80;33.10;37.50;100324;;;;591996;241;23144;-77
2022/05/31 07:52:14;;;;;;;1.90;1.80;;;38.40;37.20;37.50;100326;;;;593275;241;23078;-81
2022/05/31 07:54:41;;;;;;;1.73;1.65;;;38.30;36.80;39.10;100325;;;;593416;241;23115;-79
2022/05/31 07:58:30;;;;;;;1.60;1.50;;;39.10;37.00;40.40;100330;;;;584161;241;23075;-81
2022/05/31 07:59:37;;;;;;;1.52;1.42;;;40.40;35.40;39.50;100336;;;;583548;241;24114;-82
2022/05/31 08:02:08;;;;;;;2.87;1.30;;;40.30;34.40;37.50;100330;;;;590639;241;23083;-82
2022/05/31 08:04:33;;;;;;;1.42;1.30;;;38.70;35.30;38.20;100335;;;;592710;241;23082;-83
2022/05/31 08:07:01;;;;;;;1.30;1.17;;;38.70;37.20;39.40;100335;;;;593150;241;23065;-82
2022/05/31 08:09:30;;;;;;;2.80;2.60;;;40.60;35.60;40.50;100333;;;;593046;241;23225;-81
2022/05/31 08:11:59;;;;;;;1.30;1.30;;;40.90;35.10;40.60;100335;;;;593181;241;23063;-80
2022/05/31 08:14:27;;;;;;;1.90;1.80;;;41.60;34.60;41.30;100334;;;;593122;241;23110;-80
2022/05/31 08:16:55;;;;;;;1.35;1.23;;;41.60;34.60;41.90;100331;;;;592851;241;23104;-82
2022/05/31 08:19:23;;;;;;;1.15;1.12;;;42.20;34.50;42.60;100334;;;;593191;238;23068;-84
2022/05/31 08:21:51;;;;;;;2.05;1.10;;;42.90;33.00;43.00;100338;;;;592998;241;23121;-79
2022/05/31 08:24:19;;;;;;;1.40;1.30;;;43.30;33.30;43.60;100340;;;;593015;241;23105;-79
2022/05/31 08:26:47;;;;;;;1.27;1.17;;;43.90;33.10;43.70;100335;;;;593020;241;23079;-78
2022/05/31 08:29:16;;;;;;;1.23;1.20;;;44.30;32.40;43.80;100333;;;;592982;241;23107;-79
2022/05/31 08:31:43;;;;;;;4.25;1.50;;;44.40;32.00;43.70;100335;;;;593030;241;24066;-78
2022/05/31 08:34:13;;;;;;;1.20;1.10;;;44.60;32.10;44.10;100340;;;;592459;241;23056;-78
2022/05/31 08:36:40;;;;;;;1.10;1.10;;;44.60;31.30;43.90;100332;;;;592685;238;23104;-81
2022/05/31 08:39:09;;;;;;;0.90;0.90;;;45.00;31.50;44.50;100336;;;;593667;240;23059;-81
2022/05/31 08:41:40;;;;;;;1.42;1.10;;;45.00;31.50;45.00;100337;;;;594306;241;23048;-80
2022/05/31 08:44:33;;;;;;;0.82;0.80;;;45.00;30.90;43.90;100335;;;;593296;241;23171;-80
2022/05/31 08:47:03;;;;;;;0.60;0.60;;;45.00;30.80;43.90;100333;;;;583421;241;23112;-79
2022/05/31 08:53:35;;;;;;;1.08;0.98;;;45.80;31.10;45.50;100339;;;;590824;241;24122;-82
2022/05/31 08:59:10;;;;;;;0.80;0.80;;;46.90;30.30;45.70;100344;;;;586653;243;23138;-77
2022/05/31 09:01:39;;;;;;;0.80;0.80;;;45.70;30.30;44.00;100344;;;;590187;241;24109;-79
2022/05/31 09:04:15;;;;;;;1.37;1.27;;;45.70;30.20;43.80;100348;;;;592477;238;23083;-81
2022/05/31 09:06:58;;;;;;;1.48;0.82;;;45.10;30.40;43.40;100349;;;;584598;241;24095;-78
2022/05/31 09:09:26;;;;;;;1.02;0.93;;;44.70;30.40;44.10;100349;;;;584627;241;24092;-80
2022/05/31 09:12:05;;;;;;;2.97;2.78;;;44.90;31.60;44.50;100352;;;;593143;241;24094;-80
2022/05/31 09:14:51;;;;;;;1.48;1.00;;;45.50;30.60;42.60;100354;;;;592784;238;23117;-81
2022/05/31 09:17:27;;;;;;;1.65;1.35;;;44.30;30.20;40.90;100352;;;;592736;241;23107;-79
2022/05/31 09:20:14;;;;;;;1.97;0.70;;;42.80;31.70;41.80;100350;;;;578988;241;35021;-78
2022/05/31 09:22:43;;;;;;;0.77;0.70;;;42.10;31.30;40.60;100351;;;;581935;241;23106;-83
2022/05/31 09:25:13;;;;;;;1.40;0.90;;;40.50;32.50;38.60;100344;;;;593048;238;24120;-78
2022/05/31 09:27:47;;;;;;;0.73;0.73;;;38.40;34.40;36.50;100346;;;;593135;241;24156;-76
2022/05/31 09:30:21;;;;;;;0.70;0.70;;;38.30;34.30;34.20;100349;;;;593205;241;24083;-79
2022/05/31 09:33:04;;;;;;;2.30;0.62;;;36.00;35.90;32.50;100352;;;;593036;238;24136;-76
2022/05/31 09:35:46;;;;;;;1.98;0.50;;;33.80;38.10;31.40;100347;;;;572295;247;23126;-76
2022/05/31 09:38:48;;;;;;;0.60;0.60;;;32.30;40.10;30.30;100343;;;;584270;241;23070;-77
2022/05/31 09:41:33;;;;;;;0.90;0.57;;;31.10;41.40;29.50;100345;;;;575610;241;23106;-79
2022/05/31 09:44:17;;;;;;;2.87;0.70;;;30.00;43.20;28.70;100347;;;;582031;241;23124;-84
2022/05/31 09:46:51;;;;;;;0.77;0.63;;;29.20;44.80;27.80;100342;;;;580423;246;24144;-84
2022/05/31 09:49:22;;;;;;;4.28;0.80;;;27.60;47.10;27.20;100337;;;;584425;241;23126;-79
2022/05/31 09:51:53;;;;;;;1.40;0.70;;;27.50;46.70;26.80;100344;;;;591213;239;23103;-80
2022/05/31 09:57:19;;;;;;;1.27;1.00;;;26.50;48.20;25.40;100340;;;;594033;241;23116;-79
2022/05/31 09:59:47;;;;;;;3.63;0.80;;;25.80;49.70;24.60;100344;;;;592874;241;24057;-77
2022/05/31 10:02:30;;;;;;;1.57;1.10;;;25.10;52.30;23.90;100340;;;;593098;241;24097;-83
2022/05/31 10:05:20;;;;;;;0.93;0.90;;;23.70;55.70;23.20;100347;;;;584537;241;24069;-75
2022/05/31 10:07:48;;;;;;;1.77;0.87;;;23.20;57.50;22.90;100345;;;;593763;241;24135;-82
2022/05/31 10:10:32;;;;;;;1.43;0.97;;;23.20;57.70;23.00;100338;;;;593230;241;24052;-84
2022/05/31 10:13:00;;;;;;;0.83;0.83;;;23.20;57.70;23.30;100339;;;;593245;238;24054;-81
2022/05/31 10:15:47;;;;;;;1.20;1.00;;;24.20;56.50;24.00;100343;;;;593408;241;24115;-77
2022/05/31 10:18:14;;;;;;;1.10;1.10;;;24.20;56.50;24.60;100341;;;;582507;241;24054;-77
2022/05/31 10:21:01;;;;;;;0.87;0.87;;;24.80;55.60;25.20;100338;;;;580957;241;24056;-78
2022/05/31 10:23:41;;;;;;;1.27;1.17;;;25.50;53.90;26.30;100334;;;;590143;241;24043;-79
2022/05/31 10:26:08;;;;;;;1.43;1.10;;;26.60;53.00;27.80;100330;;;;592500;238;24141;-80
2022/05/31 10:28:53;;;;;;;3.57;1.20;;;29.70;48.40;29.20;100334;;;;584004;241;24091;-78
2022/05/31 10:31:20;;;;;;;2.30;0.90;;;29.60;48.30;29.90;100334;;;;586400;241;23072;-78
2022/05/31 10:33:57;;;;;;;1.00;0.97;;;30.70;46.30;29.60;100335;;;;583673;241;23068;-78
2022/05/31 10:36:28;;;;;;;1.20;1.10;;;30.70;45.10;29.30;100331;;;;593144;241;24050;-78
2022/05/31 10:39:13;;;;;;;1.08;0.90;;;30.30;45.40;28.60;100318;;;;592688;238;23087;-77
2022/05/31 10:41:42;;;;;;;1.10;1.00;;;28.70;45.50;27.70;100323;;;;591692;241;23081;-77
2022/05/31 10:44:29;;;;;;;4.90;1.03;;;28.00;46.60;27.20;100323;;;;583995;241;24081;-77
2022/05/31 10:46:59;;;;;;;2.80;1.47;;;28.00;46.60;26.60;100330;;;;592798;241;23077;-81
2022/05/31 10:49:27;;;;;;;0.93;0.80;;;27.40;48.20;26.20;100337;;;;592521;241;23084;-81
2022/05/31 10:52:02;;;;;;;1.23;1.00;;;26.50;49.30;25.90;100335;;;;593239;241;23155;-77
2022/05/31 10:54:52;;;;;;;3.00;1.20;;;26.50;49.30;25.60;100334;;;;592240;241;23079;-77
2022/05/31 10:57:43;;;;;;;3.93;1.27;;;26.10;50.30;25.40;100332;;;;594667;241;24082;-79
2022/05/31 11:00:14;;;;;;;1.60;1.10;;;25.90;51.10;25.40;100338;;;;590486;239;24075;-77
2022/05/31 11:03:18;;;;;;;3.30;1.37;;;25.80;51.50;25.50;100332;;;;591161;241;24042;-76
2022/05/31 11:06:10;;;;;;;1.30;1.20;;;25.90;52.00;25.60;100330;;;;591938;238;23069;-76
2022/05/31 11:11:41;;;;;;;1.30;1.00;;;25.80;50.10;25.30;100317;;;;587136;241;23069;-78
2022/05/31 11:14:30;;;;;;;2.77;1.30;;;25.80;51.00;25.00;100330;;;;584438;241;23103;-79
2022/05/31 11:17:36;;;;;;;2.30;1.10;;;25.50;51.10;24.90;100317;;;;591460;239;23067;-80
2022/05/31 11:20:18;;;;;;;1.93;1.20;;;25.30;52.40;24.70;100320;;;;591272;241;24076;-78
2022/05/31 11:22:49;;;;;;;1.77;1.20;;;25.00;51.80;24.60;100333;;;;593295;237;23075;-83
2022/05/31 11:25:38;;;;;;;0.93;0.93;;;25.00;51.80;24.40;100335;;;;579799;247;24098;-76
2022/05/31 11:28:24;;;;;;;1.27;1.00;;;24.80;51.80;23.90;100326;;;;577678;244;24044;-79
2022/05/31 11:31:29;;;;;;;1.33;1.00;;;24.50;52.10;23.60;100323;;;;581344;244;24135;-78
2022/05/31 11:34:17;;;;;;;1.27;0.90;;;24.20;52.40;23.60;100317;;;;580940;244;24116;-77
2022/05/31 11:36:57;;;;;;;0.80;0.80;;;24.00;53.10;23.50;100330;;;;583457;241;24079;-76
2022/05/31 11:40:05;;;;;;;4.77;1.23;;;24.00;53.30;23.30;100331;;;;592678;241;24047;-77
2022/05/31 11:42:38;;;;;;;2.70;1.83;;;23.80;54.80;23.10;100331;;;;590900;241;24081;-77
2022/05/31 11:45:18;;;;;;;5.50;3.23;;;23.60;55.50;23.00;100331;;;;592103;241;24051;-77
2022/05/31 11:47:51;;;;;;;1.13;1.03;;;23.40;56.00;23.10;100334;;;;592387;241;24066;-79
2022/05/31 11:50:22;;;;;;;6.73;1.20;;;23.50;56.30;23.10;100324;;;;584233;241;24110;-80
2022/05/31 11:53:17;;;;;;;1.67;1.20;;;23.50;55.50;23.20;100334;;;;592556;238;24115;-78
2022/05/31 11:56:03;;;;;;;1.10;0.73;;;23.70;54.70;23.30;100324;;;;590856;241;24052;-78
2022/05/31 11:58:38;;;;;;;1.37;0.80;;;23.80;55.10;23.30;100332;;;;589667;241;24050;-76